createdAt,value
2024-01-10T00:00:58.009Z,94447.59
2024-01-10T00:03:24.642Z,94434.63
2024-01-10T00:05:51.388Z,94416.59
2024-01-10T00:08:18.051Z,94421.78
2024-01-10T00:10:44.555Z,94441.56
2024-01-10T00:13:10.977Z,94442.81
2024-01-10T00:15:37.416Z,94411.81
2024-01-10T00:18:04.053Z,94412.09
2024-01-10T00:20:30.613Z,94445.81
2024-01-10T00:22:57.989Z,94446.72
2024-01-10T00:25:24.464Z,94448.81
2024-01-10T00:27:50.938Z,94444.06
2024-01-10T00:30:17.722Z,94421.94
2024-01-10T00:32:44.419Z,94398.00
2024-01-10T00:35:12.376Z,94386.44
2024-01-10T00:37:41.557Z,94437.59
2024-01-10T00:40:08.892Z,94434.69
2024-01-10T00:42:35.550Z,94389.50
2024-01-10T00:45:02.039Z,94438.94
2024-01-10T00:47:28.666Z,94388.75
2024-01-10T00:49:55.261Z,94426.31
2024-01-10T00:52:21.747Z,94403.03
2024-01-10T00:54:48.246Z,94410.56
2024-01-10T00:57:15.556Z,94405.06
2024-01-10T00:59:42.076Z,94406.19
2024-01-10T01:02:08.662Z,94311.81
2024-01-10T01:04:35.224Z,94386.44
2024-01-10T01:07:01.668Z,94429.38
2024-01-10T01:09:28.141Z,94417.94
2024-01-10T01:11:54.602Z,94410.75
2024-01-10T01:14:21.116Z,94441.53
2024-01-10T01:16:47.618Z,94391.94
2024-01-10T01:19:14.161Z,94421.59
2024-01-10T01:21:40.587Z,94434.34
2024-01-10T01:24:07.044Z,94444.44
2024-01-10T01:26:33.513Z,94454.19
2024-01-10T01:29:00.080Z,94423.91
2024-01-10T01:31:26.567Z,94430.44
2024-01-10T01:33:53.271Z,94420.13
2024-01-10T01:36:19.810Z,94454.34
2024-01-10T01:38:46.325Z,94414.41
2024-01-10T01:41:13.009Z,94463.91
2024-01-10T01:43:39.572Z,94437.50
2024-01-10T01:46:06.128Z,94424.88
2024-01-10T01:48:33.307Z,94455.50
2024-01-10T01:51:04.066Z,94461.78
2024-01-10T01:53:31.233Z,94357.44
2024-01-10T01:56:00.066Z,94458.84
2024-01-10T01:58:26.730Z,94455.00
2024-01-10T02:00:54.112Z,94455.84
2024-01-10T02:03:22.213Z,94415.13
2024-01-10T02:05:49.131Z,94392.81
2024-01-10T02:08:15.679Z,94392.22
2024-01-10T02:10:42.549Z,94443.72
2024-01-10T02:13:09.746Z,94448.69
2024-01-10T02:15:37.116Z,94438.97
2024-01-10T02:18:03.900Z,94411.94
2024-01-10T02:20:30.540Z,94440.25
2024-01-10T02:22:57.035Z,94390.91
2024-01-10T02:25:23.754Z,94378.31
2024-01-10T02:27:50.214Z,94414.16
2024-01-10T02:30:16.727Z,94443.56
2024-01-10T02:32:43.348Z,94409.19
2024-01-10T02:35:09.882Z,94445.03
2024-01-10T02:37:36.552Z,94382.22
2024-01-10T02:40:03.451Z,94404.25
2024-01-10T02:42:31.283Z,94439.38
2024-01-10T02:44:57.901Z,94418.19
2024-01-10T02:47:24.467Z,94404.19
2024-01-10T02:49:51.067Z,94438.47
2024-01-10T02:52:17.577Z,94421.97
2024-01-10T02:54:44.085Z,94435.34
2024-01-10T02:57:10.533Z,94401.28
2024-01-10T02:59:36.984Z,94387.81
2024-01-10T03:02:03.719Z,94391.31
2024-01-10T03:04:30.250Z,94432.03
2024-01-10T03:06:57.055Z,94343.69
2024-01-10T03:09:24.079Z,94406.53
2024-01-10T03:11:50.534Z,94408.22
2024-01-10T03:14:17.001Z,94433.16
2024-01-10T03:16:43.596Z,94385.50
2024-01-10T03:19:10.159Z,94426.84
2024-01-10T03:21:36.620Z,94432.72
2024-01-10T03:24:03.389Z,94427.47
2024-01-10T03:26:31.505Z,94402.31
2024-01-10T03:28:58.516Z,94355.44
2024-01-10T03:31:26.499Z,94445.41
2024-01-10T03:33:53.150Z,94423.75
2024-01-10T03:36:19.724Z,94430.50
2024-01-10T03:38:46.555Z,94418.72
2024-01-10T03:41:17.541Z,94441.75
2024-01-10T03:43:45.210Z,94406.50
2024-01-10T03:46:12.522Z,94414.41
2024-01-10T03:48:43.640Z,94388.06
2024-01-10T03:51:10.030Z,94430.09
2024-01-10T03:53:36.482Z,94396.13
2024-01-10T03:56:05.902Z,94425.84
2024-01-10T03:58:32.378Z,94421.38
2024-01-10T04:00:58.917Z,94443.94
2024-01-10T04:03:25.524Z,94400.81
2024-01-10T04:05:52.072Z,94380.81
2024-01-10T04:08:19.290Z,94446.44
2024-01-10T04:10:46.064Z,94437.53
2024-01-10T04:13:12.527Z,94412.69
2024-01-10T04:15:39.041Z,94417.66
2024-01-10T04:18:05.765Z,94421.56
2024-01-10T04:20:32.519Z,94418.91
2024-01-10T04:22:59.236Z,94362.16
2024-01-10T04:25:25.714Z,94416.47
2024-01-10T04:27:52.253Z,94410.25
2024-01-10T04:30:18.775Z,94439.91
2024-01-10T04:32:45.314Z,94422.84
2024-01-10T04:35:11.867Z,94440.38
2024-01-10T04:37:38.463Z,94444.03
2024-01-10T04:40:09.006Z,94434.16
2024-01-10T04:42:36.201Z,94390.94
2024-01-10T04:45:02.777Z,94428.56
2024-01-10T04:47:29.344Z,94419.91
2024-01-10T04:49:55.887Z,94402.91
2024-01-10T04:52:22.353Z,94418.69
2024-01-10T04:54:48.884Z,94445.63
2024-01-10T04:57:15.360Z,94446.06
2024-01-10T04:59:41.800Z,94416.66
2024-01-10T05:02:08.772Z,94406.00
2024-01-10T05:04:35.272Z,94435.75
2024-01-10T05:07:01.709Z,94429.63
2024-01-10T05:09:28.183Z,94453.56
2024-01-10T05:11:55.686Z,94424.25
2024-01-10T05:14:22.636Z,94416.75
2024-01-10T05:16:49.389Z,94436.44
2024-01-10T05:19:15.958Z,94406.84
2024-01-10T05:21:42.817Z,94425.84
2024-01-10T05:24:09.361Z,94451.88
2024-01-10T05:26:36.537Z,94444.38
2024-01-10T05:29:03.050Z,94444.44
2024-01-10T05:31:29.569Z,94427.22
2024-01-10T05:33:56.157Z,94423.38
2024-01-10T05:36:23.882Z,94439.16
2024-01-10T05:38:50.340Z,94420.06
2024-01-10T05:41:16.896Z,94362.06
2024-01-10T05:43:44.983Z,94429.28
2024-01-10T05:46:11.520Z,94439.19
2024-01-10T05:48:38.397Z,94417.16
2024-01-10T05:51:05.169Z,94444.09
2024-01-10T05:53:31.690Z,94418.63
2024-01-10T05:55:58.190Z,94438.91
2024-01-10T05:58:24.630Z,94412.94
2024-01-10T06:00:51.086Z,94418.41
2024-01-10T06:03:17.778Z,94451.03
2024-01-10T06:05:44.480Z,94410.41
2024-01-10T06:08:11.106Z,94445.56
2024-01-10T06:10:38.339Z,94384.38
2024-01-10T06:13:05.245Z,94461.38
2024-01-10T06:15:31.694Z,94449.59
2024-01-10T06:17:58.259Z,94450.16
2024-01-10T06:20:24.986Z,94426.31
2024-01-10T06:22:51.492Z,94426.75
2024-01-10T06:25:18.042Z,94445.22
2024-01-10T06:27:44.479Z,94462.72
2024-01-10T06:30:11.441Z,94382.75
2024-01-10T06:32:38.065Z,94422.31
2024-01-10T06:35:05.887Z,94428.09
2024-01-10T06:37:34.383Z,94426.38
2024-01-10T06:40:01.728Z,94423.56
2024-01-10T06:42:28.167Z,94452.25
2024-01-10T06:44:55.028Z,94392.50
2024-01-10T06:47:22.478Z,94450.91
2024-01-10T06:49:49.360Z,94430.41
2024-01-10T06:52:15.904Z,94450.25
2024-01-10T06:54:42.317Z,94436.59
2024-01-10T06:57:08.791Z,94438.16
2024-01-10T06:59:35.227Z,94454.25
2024-01-10T07:02:02.954Z,94450.50
2024-01-10T07:04:29.546Z,94423.56
2024-01-10T07:06:55.979Z,94413.13
2024-01-10T07:09:22.478Z,94404.16
2024-01-10T07:11:49.592Z,94460.44
2024-01-10T07:14:17.014Z,94426.81
2024-01-10T07:16:46.624Z,94445.84
2024-01-10T07:19:16.572Z,94450.94
2024-01-10T07:21:44.193Z,94439.41
2024-01-10T07:24:11.151Z,94464.03
2024-01-10T07:26:38.145Z,94450.16
2024-01-10T07:29:05.098Z,94462.44
2024-01-10T07:31:31.599Z,94467.81
2024-01-10T07:33:58.374Z,94460.44
2024-01-10T07:36:27.659Z,94485.69
2024-01-10T07:38:54.511Z,94462.59
2024-01-10T07:41:21.459Z,94500.16
2024-01-10T07:43:48.049Z,94480.16
2024-01-10T07:46:14.484Z,94449.38
2024-01-10T07:48:41.065Z,94478.94
2024-01-10T07:51:08.013Z,94471.94
2024-01-10T07:53:34.948Z,94514.44
2024-01-10T07:56:01.512Z,94467.94
2024-01-10T07:58:28.310Z,94482.16
2024-01-10T08:00:55.407Z,94456.09
2024-01-10T08:03:21.996Z,94491.56
2024-01-10T08:05:48.766Z,94443.09
2024-01-10T08:08:15.684Z,94515.72
2024-01-10T08:10:42.183Z,94489.56
2024-01-10T08:13:08.696Z,94461.59
2024-01-10T08:15:35.647Z,94491.75
2024-01-10T08:18:05.224Z,94523.63
2024-01-10T08:20:32.014Z,94491.47
2024-01-10T08:22:58.593Z,94530.84
2024-01-10T08:25:25.185Z,94534.03
2024-01-10T08:27:54.822Z,94512.81
2024-01-10T08:30:22.745Z,94512.22
2024-01-10T08:32:49.855Z,94516.97
2024-01-10T08:35:17.078Z,94528.59
2024-01-10T08:37:43.999Z,94518.03
2024-01-10T08:40:13.221Z,94528.91
2024-01-10T08:42:39.813Z,94501.75
2024-01-10T08:45:06.608Z,94527.69
2024-01-10T08:47:33.541Z,94524.03
2024-01-10T08:50:00.632Z,94475.47
2024-01-10T08:52:27.224Z,94492.38
2024-01-10T08:54:53.779Z,94514.25
2024-01-10T08:57:20.224Z,94444.25
2024-01-10T08:59:47.617Z,94493.38
2024-01-10T09:02:14.172Z,94533.72
2024-01-10T09:04:40.778Z,94522.88
2024-01-10T09:07:08.430Z,94537.06
2024-01-10T09:09:34.921Z,94482.78
2024-01-10T09:12:01.419Z,94534.91
2024-01-10T09:14:27.995Z,94489.59
2024-01-10T09:16:55.427Z,94494.94
2024-01-10T09:19:22.075Z,94478.44
2024-01-10T09:21:49.697Z,94539.69
2024-01-10T09:24:25.977Z,94544.19
2024-01-10T09:26:55.910Z,94486.63
2024-01-10T09:29:22.763Z,94546.41
2024-01-10T09:31:49.540Z,94493.00
2024-01-10T09:34:16.288Z,94504.53
2024-01-10T09:36:43.110Z,94541.34
2024-01-10T09:39:14.278Z,94459.31
2024-01-10T09:41:49.403Z,94547.75
2024-01-10T09:44:18.829Z,94500.84
2024-01-10T09:46:49.184Z,94530.88
2024-01-10T09:49:27.899Z,94500.88
2024-01-10T09:52:05.042Z,94558.38
2024-01-10T09:54:32.335Z,94568.84
2024-01-10T09:56:59.503Z,94545.81
2024-01-10T09:59:26.158Z,94519.13
2024-01-10T10:01:53.910Z,94505.31
2024-01-10T10:04:21.605Z,94562.09
2024-01-10T10:06:48.253Z,94542.88
2024-01-10T10:09:16.209Z,94552.59
2024-01-10T10:11:42.668Z,94564.31
2024-01-10T10:14:19.881Z,94568.38
2024-01-10T10:16:46.600Z,94566.59
2024-01-10T10:19:19.363Z,94565.84
2024-01-10T10:21:51.384Z,94533.84
2024-01-10T10:24:20.045Z,94525.06
2024-01-10T10:26:47.590Z,94558.25
2024-01-10T10:29:19.045Z,94536.47
2024-01-10T10:31:49.018Z,94512.66
2024-01-10T10:34:21.948Z,94502.09
2024-01-10T10:36:48.844Z,94524.06
2024-01-10T10:39:18.726Z,94537.16
2024-01-10T10:41:48.428Z,94546.88
2024-01-10T10:44:22.114Z,94534.75
2024-01-10T10:47:02.602Z,94542.59
2024-01-10T10:49:35.714Z,94496.78
2024-01-10T10:52:03.251Z,94518.16
2024-01-10T10:54:33.500Z,94469.66
2024-01-10T10:57:03.056Z,94532.88
2024-01-10T10:59:30.428Z,94400.97
2024-01-10T11:01:57.092Z,94495.94
2024-01-10T11:04:23.741Z,94501.78
2024-01-10T11:06:50.605Z,94532.47
2024-01-10T11:09:23.116Z,94523.78
2024-01-10T11:11:52.469Z,94526.97
2024-01-10T11:14:58.874Z,94521.41
2024-01-10T11:17:58.434Z,94505.44
2024-01-10T11:20:44.498Z,94479.03
2024-01-10T11:23:35.613Z,94529.00
2024-01-10T11:26:04.111Z,94498.22
2024-01-10T11:28:34.422Z,94431.66
2024-01-10T11:31:01.054Z,94485.94
2024-01-10T11:33:35.649Z,94522.22
2024-01-10T11:36:19.216Z,94497.66
2024-01-10T11:38:58.775Z,94505.81
2024-01-10T11:41:33.053Z,94522.03
2024-01-10T11:44:12.015Z,94524.00
2024-01-10T11:46:42.595Z,94507.06
2024-01-10T11:49:14.653Z,94487.16
2024-01-10T11:51:47.540Z,94523.59
2024-01-10T11:54:44.411Z,94515.00
2024-01-10T11:57:24.267Z,94504.72
2024-01-10T11:59:55.609Z,94496.06
2024-01-10T12:02:24.889Z,94521.91
2024-01-10T12:04:52.032Z,94531.00
2024-01-10T12:07:20.439Z,94521.25
2024-01-10T12:09:47.999Z,94525.22
2024-01-10T12:12:15.255Z,94520.00
2024-01-10T12:14:44.481Z,94505.88
2024-01-10T12:17:11.315Z,94481.25
2024-01-10T12:19:38.537Z,94521.56
2024-01-10T12:22:08.081Z,94522.66
2024-01-10T12:24:35.502Z,94493.88
2024-01-10T12:27:02.635Z,94514.22
2024-01-10T12:29:29.092Z,94478.81
2024-01-10T12:31:55.778Z,94497.28
2024-01-10T12:34:25.375Z,94485.22
2024-01-10T12:36:55.984Z,94505.72
2024-01-10T12:39:24.759Z,94500.28
2024-01-10T12:41:51.681Z,94467.00
2024-01-10T12:44:18.314Z,94489.59
2024-01-10T12:46:53.712Z,94496.22
2024-01-10T12:49:20.799Z,94502.91
2024-01-10T12:51:48.515Z,94485.75
2024-01-10T12:54:17.008Z,94490.91
2024-01-10T12:56:43.517Z,94494.34
2024-01-10T12:59:10.749Z,94484.22
2024-01-10T13:01:37.401Z,94497.28
2024-01-10T13:04:08.322Z,94476.31
2024-01-10T13:06:35.552Z,94463.34
2024-01-10T13:09:02.101Z,94466.19
2024-01-10T13:11:28.945Z,94377.94
2024-01-10T13:13:55.556Z,94467.19
2024-01-10T13:16:22.092Z,94392.75
2024-01-10T13:18:48.627Z,94498.34
2024-01-10T13:21:15.182Z,94483.25
2024-01-10T13:23:43.060Z,94463.00
2024-01-10T13:26:09.574Z,94469.28
2024-01-10T13:28:36.057Z,94488.25
2024-01-10T13:31:04.127Z,94472.34
2024-01-10T13:33:30.838Z,94480.00
2024-01-10T13:35:57.408Z,94495.47
2024-01-10T13:38:25.349Z,94469.75
2024-01-10T13:40:52.302Z,94389.56
2024-01-10T13:43:18.953Z,94465.97
2024-01-10T13:45:45.633Z,94487.63
2024-01-10T13:48:12.250Z,94455.09
2024-01-10T13:50:39.053Z,94459.31
2024-01-10T13:53:05.924Z,94422.50
2024-01-10T13:55:33.105Z,94469.34
2024-01-10T13:57:59.760Z,94448.81
2024-01-10T14:00:26.739Z,94491.97
2024-01-10T14:02:59.604Z,94435.53
2024-01-10T14:05:28.135Z,94449.63
2024-01-10T14:07:55.333Z,94458.28
2024-01-10T14:10:21.805Z,94418.56
2024-01-10T14:12:48.834Z,94407.88
2024-01-10T14:15:15.358Z,94430.44
2024-01-10T14:17:42.512Z,94435.94
2024-01-10T14:20:10.189Z,94425.09
2024-01-10T14:22:37.868Z,94454.91
2024-01-10T14:25:06.640Z,94425.78
2024-01-10T14:27:33.163Z,94444.06
2024-01-10T14:30:00.635Z,94479.44
2024-01-10T14:32:27.383Z,94455.06
2024-01-10T14:34:54.272Z,94468.56
2024-01-10T14:37:22.150Z,94473.81
2024-01-10T14:39:48.762Z,94485.75
2024-01-10T14:42:15.190Z,94467.09
2024-01-10T14:44:41.764Z,94437.88
2024-01-10T14:47:11.571Z,94479.38
2024-01-10T14:49:39.642Z,94481.59
2024-01-10T14:52:06.836Z,94454.28
2024-01-10T14:54:33.484Z,94486.16
2024-01-10T14:57:00.064Z,94436.22
2024-01-10T14:59:37.038Z,94491.13
2024-01-10T15:02:11.167Z,94437.50
2024-01-10T15:04:41.427Z,94483.16
2024-01-10T15:07:08.588Z,94452.31
2024-01-10T15:09:37.613Z,94478.53
2024-01-10T15:12:11.324Z,94475.13
2024-01-10T15:14:41.501Z,94438.72
2024-01-10T15:17:09.955Z,94487.81
2024-01-10T15:19:37.687Z,94471.19
2024-01-10T15:22:05.553Z,94482.19
2024-01-10T15:24:32.062Z,94490.41
2024-01-10T15:27:02.649Z,94423.38
2024-01-10T15:29:30.193Z,94490.25
2024-01-10T15:31:56.966Z,94489.00
2024-01-10T15:34:25.880Z,94480.59
2024-01-10T15:36:52.830Z,94461.88
2024-01-10T15:39:21.219Z,94465.41
2024-01-10T15:41:51.063Z,94423.66
2024-01-10T15:44:22.153Z,94475.81
2024-01-10T15:46:49.833Z,94475.31
2024-01-10T15:49:17.060Z,94482.88
2024-01-10T15:51:43.794Z,94484.59
2024-01-10T15:54:10.409Z,94478.84
2024-01-10T15:56:40.305Z,94429.16
2024-01-10T15:59:07.906Z,94497.97
2024-01-10T16:01:35.545Z,94505.88
2024-01-10T16:04:03.386Z,94498.88
2024-01-10T16:06:31.720Z,94446.88
2024-01-10T16:08:58.223Z,94482.19
2024-01-10T16:11:25.417Z,94453.19
2024-01-10T16:13:52.095Z,94430.94
2024-01-10T16:16:23.433Z,94414.63
2024-01-10T16:18:50.037Z,94482.94
2024-01-10T16:21:16.546Z,94456.09
2024-01-10T16:23:43.050Z,94493.91
2024-01-10T16:26:11.860Z,94462.72
2024-01-10T16:28:38.377Z,94442.84
2024-01-10T16:31:05.001Z,94491.47
2024-01-10T16:33:31.486Z,94393.63
2024-01-10T16:35:57.934Z,94475.75
2024-01-10T16:38:24.637Z,94469.41
2024-01-10T16:40:51.238Z,94494.63
2024-01-10T16:43:17.715Z,94500.56
2024-01-10T16:45:44.170Z,94417.00
2024-01-10T16:48:10.910Z,94431.25
2024-01-10T16:50:37.507Z,94460.31
2024-01-10T16:53:04.840Z,94483.66
2024-01-10T16:55:31.535Z,94500.69
2024-01-10T16:57:58.443Z,94511.63
2024-01-10T17:00:25.719Z,94502.34
2024-01-10T17:02:52.761Z,94489.56
2024-01-10T17:05:20.336Z,94451.53
2024-01-10T17:07:47.069Z,94500.88
2024-01-10T17:10:13.697Z,94499.88
2024-01-10T17:12:40.163Z,94472.94
2024-01-10T17:15:07.235Z,94477.38
2024-01-10T17:17:33.899Z,94503.66
2024-01-10T17:20:00.621Z,94477.72
2024-01-10T17:22:29.093Z,94497.41
2024-01-10T17:24:56.575Z,94515.41
2024-01-10T17:27:23.054Z,94510.16
2024-01-10T17:29:49.520Z,94519.22
2024-01-10T17:32:16.762Z,94507.59
2024-01-10T17:34:43.422Z,94489.50
2024-01-10T17:37:09.927Z,94492.66
2024-01-10T17:39:36.357Z,94497.81
2024-01-10T17:42:02.836Z,94523.72
2024-01-10T17:44:29.356Z,94521.91
2024-01-10T17:46:55.947Z,94506.25
2024-01-10T17:49:22.454Z,94432.41
2024-01-10T17:51:48.924Z,94513.50
2024-01-10T17:54:15.363Z,94531.63
2024-01-10T17:56:41.803Z,94524.94
2024-01-10T17:59:08.341Z,94527.56
2024-01-10T18:01:35.020Z,94532.88
2024-01-10T18:04:07.775Z,94506.66
2024-01-10T18:06:40.255Z,94516.34
2024-01-10T18:09:07.996Z,94511.59
2024-01-10T18:11:34.759Z,94448.41
2024-01-10T18:14:01.507Z,94487.97
2024-01-10T18:16:28.057Z,94525.31
2024-01-10T18:18:54.695Z,94535.56
2024-01-10T18:21:21.488Z,94517.03
2024-01-10T18:23:47.980Z,94512.25
2024-01-10T18:26:14.630Z,94525.78
2024-01-10T18:28:42.198Z,94529.03
2024-01-10T18:31:08.662Z,94429.28
2024-01-10T18:33:35.173Z,94511.88
2024-01-10T18:36:01.906Z,94540.78
2024-01-10T18:38:28.428Z,94508.03
2024-01-10T18:40:55.083Z,94518.50
2024-01-10T18:43:21.602Z,94532.88
2024-01-10T18:45:48.087Z,94524.34
2024-01-10T18:48:14.618Z,94514.34
2024-01-10T18:50:42.094Z,94504.41
2024-01-10T18:53:08.798Z,94482.78
2024-01-10T18:55:36.762Z,94493.72
2024-01-10T18:58:04.936Z,94469.03
2024-01-10T19:00:32.426Z,94530.78
2024-01-10T19:03:01.622Z,94518.72
2024-01-10T19:05:28.767Z,94469.31
2024-01-10T19:07:55.678Z,94519.56
2024-01-10T19:10:22.606Z,94528.25
2024-01-10T19:12:49.375Z,94527.94
2024-01-10T19:15:16.203Z,94505.56
2024-01-10T19:17:42.758Z,94508.38
2024-01-10T19:20:09.757Z,94526.44
2024-01-10T19:22:36.491Z,94513.00
2024-01-10T19:25:03.367Z,94539.38
2024-01-10T19:27:30.774Z,94482.03
2024-01-10T19:29:57.471Z,94492.34
2024-01-10T19:32:24.094Z,94527.88
2024-01-10T19:34:50.754Z,94534.34
2024-01-10T19:37:20.078Z,94515.09
2024-01-10T19:39:46.793Z,94468.31
2024-01-10T19:42:13.253Z,94511.69
2024-01-10T19:44:39.826Z,94496.22
2024-01-10T19:47:09.598Z,94509.38
2024-01-10T19:49:36.581Z,94508.09
2024-01-10T19:52:03.417Z,94473.94
2024-01-10T19:54:30.495Z,94524.72
2024-01-10T19:56:57.033Z,94533.59
2024-01-10T19:59:23.522Z,94530.72
2024-01-10T20:01:50.116Z,94512.34
2024-01-10T20:04:16.606Z,94477.00
2024-01-10T20:06:43.165Z,94537.66
2024-01-10T20:09:11.454Z,94487.38
2024-01-10T20:11:37.985Z,94486.91
2024-01-10T20:14:04.614Z,94542.38
2024-01-10T20:16:31.151Z,94528.91
2024-01-10T20:18:57.740Z,94476.47
2024-01-10T20:21:24.320Z,94541.03
2024-01-10T20:23:50.899Z,94549.28
2024-01-10T20:26:17.513Z,94523.09
2024-01-10T20:28:44.178Z,94560.16
2024-01-10T20:31:10.789Z,94542.50
2024-01-10T20:33:37.605Z,94542.75
2024-01-10T20:36:04.858Z,94522.56
2024-01-10T20:38:31.401Z,94558.44
2024-01-10T20:40:58.125Z,94536.50
2024-01-10T20:43:27.726Z,94551.31
2024-01-10T20:45:54.522Z,94554.88
2024-01-10T20:48:21.077Z,94560.94
2024-01-10T20:50:47.732Z,94526.63
2024-01-10T20:53:16.479Z,94508.75
2024-01-10T20:55:44.032Z,94560.06
2024-01-10T20:58:10.822Z,94558.16
2024-01-10T21:00:38.598Z,94564.50
2024-01-10T21:03:05.381Z,94542.03
2024-01-10T21:05:31.898Z,94562.16
2024-01-10T21:07:59.079Z,94554.34
2024-01-10T21:10:25.580Z,94551.28
2024-01-10T21:12:52.126Z,94568.47
2024-01-10T21:15:18.548Z,94514.03
2024-01-10T21:17:45.230Z,94569.00
2024-01-10T21:20:12.166Z,94560.78
2024-01-10T21:22:39.370Z,94582.84
2024-01-10T21:25:07.660Z,94512.59
2024-01-10T21:27:34.205Z,94575.84
2024-01-10T21:30:00.715Z,94496.63
2024-01-10T21:32:27.464Z,94531.59
2024-01-10T21:34:54.445Z,94543.19
2024-01-10T21:37:21.105Z,94546.81
2024-01-10T21:39:47.753Z,94581.16
2024-01-10T21:42:14.278Z,94571.50
2024-01-10T21:44:40.744Z,94570.59
2024-01-10T21:47:07.714Z,94576.06
2024-01-10T21:49:34.622Z,94557.34
2024-01-10T21:52:01.245Z,94571.50
2024-01-10T21:54:27.848Z,94533.50
2024-01-10T21:56:54.289Z,94549.75
2024-01-10T21:59:20.768Z,94572.00
2024-01-10T22:01:47.335Z,94506.66
2024-01-10T22:04:14.092Z,94572.84
2024-01-10T22:06:40.679Z,94571.06
2024-01-10T22:09:09.640Z,94565.66
2024-01-10T22:11:36.693Z,94582.53
2024-01-10T22:14:03.294Z,94576.38
2024-01-10T22:16:29.849Z,94544.44
2024-01-10T22:18:56.412Z,94540.75
2024-01-10T22:21:23.053Z,94564.50
2024-01-10T22:23:49.476Z,94574.81
2024-01-10T22:26:16.007Z,94568.28
2024-01-10T22:28:42.490Z,94477.84
2024-01-10T22:31:09.015Z,94544.66
2024-01-10T22:33:35.543Z,94563.16
2024-01-10T22:36:02.020Z,94574.31
2024-01-10T22:38:28.563Z,94574.09
2024-01-10T22:40:55.210Z,94575.56
2024-01-10T22:43:21.660Z,94491.16
2024-01-10T22:45:48.142Z,94524.56
2024-01-10T22:48:14.680Z,94543.44
2024-01-10T22:50:41.230Z,94504.78
2024-01-10T22:53:07.742Z,94572.22
2024-01-10T22:55:34.424Z,94575.34
2024-01-10T22:58:00.966Z,94547.66
2024-01-10T23:00:27.756Z,94513.22
2024-01-10T23:02:54.613Z,94529.75
2024-01-10T23:05:24.291Z,94571.34
2024-01-10T23:07:53.293Z,94580.66
2024-01-10T23:10:19.975Z,94572.34
2024-01-10T23:12:46.591Z,94560.06
2024-01-10T23:15:13.034Z,94579.31
2024-01-10T23:17:39.629Z,94571.41
2024-01-10T23:20:06.934Z,94573.69
2024-01-10T23:22:33.421Z,94576.28
2024-01-10T23:25:00.275Z,94592.59
2024-01-10T23:27:26.695Z,94542.00
2024-01-10T23:29:53.845Z,94593.25
2024-01-10T23:32:23.065Z,94589.09
2024-01-10T23:34:49.792Z,94600.09
2024-01-10T23:37:16.251Z,94597.44
2024-01-10T23:39:42.854Z,94597.41
2024-01-10T23:42:09.290Z,94550.56
2024-01-10T23:44:35.916Z,94598.03
2024-01-10T23:47:02.442Z,94591.59
2024-01-10T23:49:28.943Z,94575.84
2024-01-10T23:51:55.488Z,94541.59
2024-01-10T23:54:22.026Z,94588.63
2024-01-10T23:56:48.525Z,94592.66
2024-01-10T23:59:14.977Z,94562.66
